createdAt,value
2019-05-14T00:02:21.460Z,10.41
2019-05-14T00:04:51.026Z,10.52
2019-05-14T00:07:19.085Z,10.45
2019-05-14T00:09:47.074Z,10.49
2019-05-14T00:12:15.127Z,10.38
2019-05-14T00:14:43.957Z,10.47
2019-05-14T00:17:12.284Z,10.41
2019-05-14T00:19:41.698Z,10.50
2019-05-14T00:22:11.726Z,10.43
2019-05-14T00:24:41.711Z,10.57
2019-05-14T00:27:11.514Z,10.50
2019-05-14T00:29:41.860Z,10.50
2019-05-14T00:32:11.158Z,10.49
2019-05-14T00:34:39.297Z,10.36
2019-05-14T00:37:07.297Z,10.40
2019-05-14T00:39:35.293Z,10.43
2019-05-14T00:42:03.442Z,10.39
2019-05-14T00:44:32.601Z,10.44
2019-05-14T00:47:02.166Z,10.46
2019-05-14T00:49:31.688Z,10.37
2019-05-14T00:52:02.076Z,10.42
2019-05-14T00:54:32.042Z,10.37
2019-05-14T00:57:01.497Z,10.40
2019-05-14T00:59:31.985Z,10.60
2019-05-14T01:02:02.667Z,10.53
2019-05-14T01:04:31.213Z,10.50
2019-05-14T01:07:01.418Z,10.53
2019-05-14T01:09:31.481Z,10.55
2019-05-14T01:12:01.769Z,10.51
2019-05-14T01:14:31.740Z,10.52
2019-05-14T01:17:01.990Z,10.53
2019-05-14T01:19:31.519Z,10.41
2019-05-14T01:22:01.735Z,10.21
2019-05-14T01:24:32.146Z,10.26
2019-05-14T01:27:01.645Z,10.34
2019-05-14T01:29:31.634Z,10.35
2019-05-14T01:32:01.278Z,10.35
2019-05-14T01:34:29.421Z,10.29
2019-05-14T01:36:57.270Z,10.34
2019-05-14T01:39:26.140Z,10.38
2019-05-14T01:41:55.458Z,10.34
2019-05-14T01:44:23.313Z,10.22
2019-05-14T01:46:51.410Z,10.27
2019-05-14T01:49:19.381Z,10.15
2019-05-14T01:51:48.257Z,10.17
2019-05-14T01:54:16.437Z,10.24
2019-05-14T01:56:44.534Z,10.23
2019-05-14T01:59:12.573Z,10.29
2019-05-14T02:01:41.420Z,10.12
2019-05-14T02:04:11.636Z,10.11
2019-05-14T02:06:41.297Z,10.09
2019-05-14T02:09:11.123Z,10.22
2019-05-14T02:11:41.562Z,10.20
2019-05-14T02:14:11.522Z,10.13
2019-05-14T02:16:42.014Z,10.16
2019-05-14T02:19:11.416Z,10.15
2019-05-14T02:21:39.372Z,10.01
2019-05-14T02:24:07.338Z,10.05
2019-05-14T02:26:35.337Z,10.03
2019-05-14T02:29:03.306Z,10.15
2019-05-14T02:31:31.233Z,10.17
2019-05-14T02:33:59.384Z,10.11
2019-05-14T02:36:30.635Z,10.07
2019-05-14T02:39:00.327Z,10.07
2019-05-14T02:41:29.907Z,9.96
2019-05-14T02:43:59.389Z,10.03
2019-05-14T02:46:29.502Z,10.02
2019-05-14T02:48:59.537Z,9.96
2019-05-14T02:51:29.709Z,10.01
2019-05-14T02:53:59.184Z,9.91
2019-05-14T02:56:29.643Z,9.93
2019-05-14T02:58:59.773Z,9.85
2019-05-14T03:01:26.435Z,9.77
2019-05-14T03:03:54.366Z,9.93
2019-05-14T03:06:22.488Z,10.08
2019-05-14T03:08:50.434Z,10.06
2019-05-14T03:11:20.046Z,10.01
2019-05-14T03:13:49.469Z,10.04
2019-05-14T03:16:28.158Z,9.95
2019-05-14T03:18:50.292Z,9.91
2019-05-14T03:21:19.838Z,10.03
2019-05-14T03:23:49.655Z,9.90
2019-05-14T03:26:19.823Z,9.92
2019-05-14T03:28:49.590Z,9.94
2019-05-14T03:31:22.397Z,9.93
2019-05-14T03:33:52.572Z,10.03
2019-05-14T03:36:25.202Z,9.85
2019-05-14T03:38:50.143Z,9.80
2019-05-14T03:41:19.470Z,9.80
2019-05-14T03:43:49.354Z,9.94
2019-05-14T03:46:20.261Z,9.91
2019-05-14T03:48:49.129Z,9.79
2019-05-14T03:51:16.341Z,9.57
2019-05-14T03:53:57.211Z,9.66
2019-05-14T03:56:14.198Z,9.73
2019-05-14T03:58:43.213Z,9.71
2019-05-14T04:01:11.316Z,9.76
2019-05-14T04:03:40.071Z,9.60
2019-05-14T04:06:10.042Z,9.68
2019-05-14T04:08:39.477Z,9.71
2019-05-14T04:11:09.612Z,9.63
2019-05-14T04:13:40.652Z,9.52
2019-05-14T04:16:11.291Z,9.56
2019-05-14T04:18:40.812Z,9.67
2019-05-14T04:21:10.552Z,9.52
2019-05-14T04:23:40.185Z,9.42
2019-05-14T04:26:09.462Z,9.39
2019-05-14T04:28:39.327Z,9.39
2019-05-14T04:31:09.852Z,9.42
2019-05-14T04:33:39.431Z,9.38
2019-05-14T04:36:09.865Z,9.16
2019-05-14T04:38:40.963Z,9.30
2019-05-14T04:41:10.393Z,9.28
2019-05-14T04:43:40.061Z,9.36
2019-05-14T04:46:10.317Z,9.45
2019-05-14T04:48:42.955Z,9.39
2019-05-14T04:51:09.830Z,9.46
2019-05-14T04:53:39.344Z,9.42
2019-05-14T04:56:09.826Z,9.43
2019-05-14T04:58:40.494Z,9.55
2019-05-14T05:01:09.808Z,9.57
2019-05-14T05:03:39.731Z,9.85
2019-05-14T05:06:14.375Z,9.70
2019-05-14T05:08:51.257Z,9.93
2019-05-14T05:11:30.163Z,10.02
2019-05-14T05:14:09.147Z,9.67
2019-05-14T05:16:49.188Z,9.84
2019-05-14T05:19:39.087Z,9.76
2019-05-14T05:22:23.176Z,9.81
2019-05-14T05:25:09.218Z,9.47
2019-05-14T05:27:59.835Z,9.47
2019-05-14T05:30:42.935Z,9.54
2019-05-14T05:33:21.925Z,9.72
2019-05-14T05:35:50.846Z,9.73
2019-05-14T05:38:18.735Z,9.81
2019-05-14T05:40:48.538Z,9.82
2019-05-14T05:43:16.526Z,10.04
2019-05-14T05:45:44.438Z,9.71
2019-05-14T05:48:12.335Z,9.83
2019-05-14T05:50:40.256Z,9.96
2019-05-14T05:53:09.003Z,9.94
2019-05-14T05:55:39.392Z,10.04
2019-05-14T05:58:08.704Z,10.05
2019-05-14T06:00:39.915Z,10.15
2019-05-14T06:03:10.711Z,10.03
2019-05-14T06:05:38.986Z,10.02
2019-05-14T06:08:08.660Z,9.76
2019-05-14T06:10:39.709Z,9.77
2019-05-14T06:13:08.904Z,9.80
2019-05-14T06:15:45.546Z,10.01
2019-05-14T06:18:15.193Z,9.77
2019-05-14T06:20:38.688Z,9.69
2019-05-14T06:23:08.447Z,9.80
2019-05-14T06:25:36.328Z,9.80
2019-05-14T06:28:04.462Z,9.77
2019-05-14T06:30:39.285Z,9.95
2019-05-14T06:33:09.040Z,9.86
2019-05-14T06:35:39.353Z,9.97
2019-05-14T06:38:08.721Z,9.77
2019-05-14T06:40:36.195Z,9.67
2019-05-14T06:43:04.136Z,9.77
2019-05-14T06:45:31.985Z,9.84
2019-05-14T06:48:00.017Z,9.68
2019-05-14T06:50:29.133Z,9.69
2019-05-14T06:52:58.121Z,9.87
2019-05-14T06:55:28.292Z,9.84
2019-05-14T06:57:58.386Z,9.87
2019-05-14T07:00:28.591Z,9.91
2019-05-14T07:02:58.296Z,10.15
2019-05-14T07:05:28.130Z,10.05
2019-05-14T07:07:59.535Z,10.19
2019-05-14T07:10:28.541Z,10.18
2019-05-14T07:12:56.046Z,10.29
2019-05-14T07:15:24.189Z,10.44
2019-05-14T07:17:52.133Z,10.33
2019-05-14T07:20:20.081Z,10.47
2019-05-14T07:22:48.496Z,10.44
2019-05-14T07:25:18.402Z,10.48
2019-05-14T07:27:46.307Z,10.52
2019-05-14T07:30:14.298Z,10.56
2019-05-14T07:32:42.555Z,10.63
2019-05-14T07:35:10.758Z,10.50
2019-05-14T07:37:39.627Z,10.34
2019-05-14T07:40:09.644Z,10.54
2019-05-14T07:42:38.337Z,10.77
2019-05-14T07:45:09.368Z,10.88
2019-05-14T07:47:38.855Z,10.79
2019-05-14T07:50:08.584Z,10.41
2019-05-14T07:52:36.333Z,10.72
2019-05-14T07:55:05.022Z,10.66
2019-05-14T07:57:33.192Z,10.79
2019-05-14T08:00:01.001Z,11.11
2019-05-14T08:02:29.160Z,10.94
2019-05-14T08:04:58.022Z,11.07
2019-05-14T08:07:28.043Z,11.24
2019-05-14T08:09:58.296Z,11.34
2019-05-14T08:12:25.842Z,11.60
2019-05-14T08:15:13.161Z,11.43
2019-05-14T08:17:24.080Z,11.46
2019-05-14T08:19:52.034Z,11.61
2019-05-14T08:22:20.058Z,11.57
2019-05-14T08:24:48.905Z,11.52
2019-05-14T08:27:19.186Z,11.62
2019-05-14T08:29:48.722Z,11.76
2019-05-14T08:32:19.108Z,11.63
2019-05-14T08:34:47.998Z,11.47
2019-05-14T08:37:16.092Z,11.79
2019-05-14T08:39:44.177Z,11.73
2019-05-14T08:42:12.168Z,12.11
2019-05-14T08:44:40.263Z,12.03
2019-05-14T08:47:09.495Z,12.16
2019-05-14T08:49:45.981Z,11.96
2019-05-14T08:52:08.763Z,11.93
2019-05-14T08:54:39.126Z,12.03
2019-05-14T08:57:09.855Z,12.11
2019-05-14T08:59:39.582Z,12.13
2019-05-14T09:02:10.654Z,12.42
2019-05-14T09:04:42.866Z,12.77
2019-05-14T09:07:09.517Z,12.74
2019-05-14T09:09:38.194Z,12.90
2019-05-14T09:12:12.152Z,12.20
2019-05-14T09:14:38.684Z,12.40
2019-05-14T09:17:06.173Z,12.55
2019-05-14T09:19:34.315Z,12.58
2019-05-14T09:22:02.299Z,12.48
2019-05-14T09:24:30.389Z,12.08
2019-05-14T09:26:59.231Z,12.38
2019-05-14T09:29:29.755Z,12.45
2019-05-14T09:31:58.937Z,12.47
2019-05-14T09:34:28.974Z,12.48
2019-05-14T09:36:59.155Z,12.59
2019-05-14T09:39:28.949Z,12.95
2019-05-14T09:41:58.152Z,13.24
2019-05-14T09:44:26.159Z,13.40
2019-05-14T09:46:54.140Z,13.50
2019-05-14T09:49:22.100Z,13.43
2019-05-14T09:51:50.198Z,13.06
2019-05-14T09:54:19.622Z,12.66
2019-05-14T09:56:48.508Z,12.66
2019-05-14T09:59:18.524Z,12.51
2019-05-14T10:01:50.417Z,12.44
2019-05-14T10:04:16.718Z,12.38
2019-05-14T10:06:44.914Z,12.35
2019-05-14T10:09:13.151Z,12.25
2019-05-14T10:11:41.278Z,12.28
2019-05-14T10:14:09.278Z,12.29
2019-05-14T10:16:38.558Z,12.48
2019-05-14T10:19:06.763Z,12.58
2019-05-14T10:21:35.048Z,12.32
2019-05-14T10:24:03.029Z,12.33
2019-05-14T10:26:31.090Z,12.31
2019-05-14T10:29:00.099Z,12.20
2019-05-14T10:31:28.978Z,12.15
2019-05-14T10:33:58.854Z,11.95
2019-05-14T10:36:30.081Z,11.73
2019-05-14T10:38:58.915Z,11.66
2019-05-14T10:41:29.130Z,11.42
2019-05-14T10:43:59.085Z,11.28
2019-05-14T10:46:28.969Z,10.95
2019-05-14T10:48:58.671Z,10.92
2019-05-14T10:51:28.353Z,10.84
2019-05-14T10:53:59.140Z,10.92
2019-05-14T10:56:29.513Z,10.95
2019-05-14T10:58:58.253Z,10.89
2019-05-14T11:01:28.247Z,11.19
2019-05-14T11:03:55.948Z,11.27
2019-05-14T11:06:23.812Z,11.46
2019-05-14T11:08:51.713Z,11.64
2019-05-14T11:11:19.846Z,11.63
2019-05-14T11:13:48.103Z,11.76
2019-05-14T11:16:18.796Z,11.66
2019-05-14T11:18:49.268Z,11.67
2019-05-14T11:21:24.910Z,11.54
2019-05-14T11:23:45.953Z,11.29
2019-05-14T11:26:14.468Z,11.58
2019-05-14T11:28:42.404Z,11.67
2019-05-14T11:31:10.505Z,11.67
2019-05-14T11:33:38.952Z,11.38
2019-05-14T11:36:09.294Z,11.67
2019-05-14T11:38:37.890Z,11.87
2019-05-14T11:41:06.103Z,11.47
2019-05-14T11:43:34.106Z,11.39
2019-05-14T11:46:02.020Z,11.08
2019-05-14T11:48:30.054Z,11.21
2019-05-14T11:50:59.500Z,11.30
2019-05-14T11:53:27.732Z,11.32
2019-05-14T11:55:55.781Z,11.11
2019-05-14T11:58:23.760Z,10.70
2019-05-14T12:00:51.861Z,10.82
2019-05-14T12:03:20.023Z,10.84
2019-05-14T12:05:49.453Z,10.71
2019-05-14T12:08:18.666Z,10.83
2019-05-14T12:10:46.769Z,10.69
2019-05-14T12:13:14.518Z,10.56
2019-05-14T12:15:42.504Z,10.78
2019-05-14T12:18:10.626Z,10.87
2019-05-14T12:20:39.644Z,10.80
2019-05-14T12:23:08.915Z,10.75
2019-05-14T12:25:36.936Z,10.88
2019-05-14T12:28:04.946Z,10.98
2019-05-14T12:30:32.782Z,11.10
2019-05-14T12:33:00.651Z,11.10
2019-05-14T12:35:29.383Z,10.98
2019-05-14T12:37:58.664Z,11.22
2019-05-14T12:40:28.830Z,11.04
2019-05-14T12:42:59.201Z,11.34
2019-05-14T12:45:29.649Z,11.46
2019-05-14T12:47:58.458Z,11.61
2019-05-14T12:50:26.315Z,11.75
2019-05-14T12:52:54.348Z,11.38
2019-05-14T12:55:22.431Z,11.85
2019-05-14T12:57:50.395Z,11.96
2019-05-14T13:00:18.641Z,11.95
2019-05-14T13:02:46.870Z,12.06
2019-05-14T13:05:14.699Z,12.14
2019-05-14T13:07:42.324Z,12.36
2019-05-14T13:10:10.977Z,11.62
2019-05-14T13:12:39.245Z,11.87
2019-05-14T13:15:08.747Z,11.88
2019-05-14T13:17:38.913Z,11.82
2019-05-14T13:20:13.249Z,11.70
2019-05-14T13:22:44.940Z,11.82
2019-05-14T13:25:09.903Z,11.38
2019-05-14T13:27:39.176Z,11.62
2019-05-14T13:30:09.103Z,11.14
2019-05-14T13:32:39.083Z,11.66
2019-05-14T13:35:10.468Z,11.84
2019-05-14T13:37:39.559Z,11.85
2019-05-14T13:40:09.228Z,11.38
2019-05-14T13:42:39.389Z,11.42
2019-05-14T13:45:06.963Z,11.42
2019-05-14T13:47:34.980Z,11.33
2019-05-14T13:50:02.851Z,11.55
2019-05-14T13:52:31.932Z,11.53
2019-05-14T13:54:59.910Z,11.72
2019-05-14T13:57:28.709Z,11.72
2019-05-14T13:59:59.008Z,11.59
2019-05-14T14:02:28.860Z,11.38
2019-05-14T14:04:58.839Z,11.39
2019-05-14T14:07:26.825Z,11.58
2019-05-14T14:09:54.689Z,11.91
2019-05-14T14:12:25.108Z,12.12
2019-05-14T14:14:52.477Z,11.83
2019-05-14T14:17:20.457Z,11.92
2019-05-14T14:19:48.405Z,11.90
2019-05-14T14:22:19.091Z,11.82
2019-05-14T14:24:48.707Z,11.43
2019-05-14T14:27:19.385Z,11.76
2019-05-14T14:29:49.139Z,11.46
2019-05-14T14:32:18.590Z,11.63
2019-05-14T14:34:46.214Z,11.84
2019-05-14T14:37:14.391Z,11.96
2019-05-14T14:39:42.645Z,11.67
2019-05-14T14:42:10.646Z,11.64
2019-05-14T14:44:39.295Z,11.50
2019-05-14T14:47:08.018Z,11.45
2019-05-14T14:49:42.236Z,11.56
2019-05-14T14:52:06.241Z,11.67
2019-05-14T14:54:34.330Z,11.83
2019-05-14T14:57:02.487Z,11.76
2019-05-14T14:59:30.719Z,11.98
2019-05-14T15:01:59.715Z,12.08
2019-05-14T15:04:29.590Z,11.97
2019-05-14T15:06:59.774Z,11.97
2019-05-14T15:09:27.500Z,12.04
2019-05-14T15:11:55.374Z,11.84
2019-05-14T15:14:23.585Z,11.72
2019-05-14T15:16:51.567Z,11.84
2019-05-14T15:19:19.996Z,11.88
2019-05-14T15:21:48.858Z,11.82
2019-05-14T15:24:19.673Z,11.56
2019-05-14T15:26:47.808Z,11.58
2019-05-14T15:29:18.523Z,11.81
2019-05-14T15:31:48.377Z,11.91
2019-05-14T15:34:15.802Z,11.94
2019-05-14T15:36:43.885Z,11.95
2019-05-14T15:39:12.009Z,11.80
2019-05-14T15:41:40.101Z,11.78
2019-05-14T15:44:08.991Z,11.75
2019-05-14T15:46:41.608Z,11.73
2019-05-14T15:49:08.987Z,11.64
2019-05-14T15:51:39.749Z,11.70
2019-05-14T15:54:32.640Z,11.54
2019-05-14T15:56:39.488Z,11.43
2019-05-14T15:59:08.747Z,11.48
2019-05-14T16:01:39.614Z,11.33
2019-05-14T16:04:11.152Z,11.43
2019-05-14T16:06:38.556Z,11.41
2019-05-14T16:09:06.625Z,11.41
2019-05-14T16:11:34.637Z,11.40
2019-05-14T16:14:02.640Z,11.45
2019-05-14T16:16:30.463Z,11.49
2019-05-14T16:18:59.762Z,11.40
2019-05-14T16:21:28.919Z,11.25
2019-05-14T16:23:58.825Z,11.11
2019-05-14T16:26:29.214Z,11.06
2019-05-14T16:28:59.215Z,10.97
2019-05-14T16:31:28.071Z,11.13
2019-05-14T16:33:56.868Z,10.96
2019-05-14T16:36:24.666Z,10.83
2019-05-14T16:38:52.405Z,10.84
2019-05-14T16:41:20.046Z,10.64
2019-05-14T16:43:49.565Z,10.74
2019-05-14T16:46:18.287Z,10.86
2019-05-14T16:48:48.673Z,10.58
2019-05-14T16:51:19.122Z,10.63
2019-05-14T16:53:48.607Z,10.62
2019-05-14T16:56:18.453Z,10.50
2019-05-14T16:58:46.602Z,10.75
2019-05-14T17:01:14.743Z,10.71
2019-05-14T17:03:42.661Z,10.79
2019-05-14T17:06:10.694Z,10.60
2019-05-14T17:08:39.344Z,10.46
2019-05-14T17:11:08.937Z,10.52
2019-05-14T17:13:38.191Z,10.43
2019-05-14T17:16:08.309Z,10.34
2019-05-14T17:18:36.182Z,10.27
2019-05-14T17:21:04.181Z,10.21
2019-05-14T17:23:31.947Z,10.45
2019-05-14T17:26:00.081Z,10.46
2019-05-14T17:28:28.649Z,10.52
2019-05-14T17:30:56.842Z,10.31
2019-05-14T17:33:24.584Z,10.40
2019-05-14T17:35:52.580Z,10.47
2019-05-14T17:38:22.198Z,10.37
2019-05-14T17:40:49.861Z,10.53
2019-05-14T17:43:19.466Z,10.50
2019-05-14T17:45:48.295Z,10.29
2019-05-14T17:48:18.323Z,10.35
2019-05-14T17:50:48.486Z,10.49
2019-05-14T17:53:18.194Z,10.52
2019-05-14T17:55:48.204Z,10.58
2019-05-14T17:58:18.618Z,10.52
2019-05-14T18:00:45.949Z,10.86
2019-05-14T18:03:13.947Z,10.95
2019-05-14T18:05:43.755Z,10.78
2019-05-14T18:08:11.958Z,10.87
2019-05-14T18:10:39.797Z,10.70
2019-05-14T18:13:09.275Z,10.85
2019-05-14T18:15:39.466Z,10.71
2019-05-14T18:18:08.875Z,10.74
2019-05-14T18:20:39.464Z,10.69
2019-05-14T18:23:11.483Z,10.49
2019-05-14T18:25:38.915Z,10.42
2019-05-14T18:28:09.346Z,10.54
2019-05-14T18:30:38.623Z,10.41
2019-05-14T18:33:07.985Z,10.22
2019-05-14T18:35:42.398Z,10.54
2019-05-14T18:38:08.278Z,10.18
2019-05-14T18:40:36.330Z,9.81
2019-05-14T18:43:04.448Z,9.78
2019-05-14T18:45:34.231Z,9.85
2019-05-14T18:48:02.166Z,9.90
2019-05-14T18:50:30.973Z,9.94
2019-05-14T18:52:59.838Z,9.74
2019-05-14T18:55:29.264Z,9.47
2019-05-14T18:57:59.294Z,9.49
2019-05-14T19:00:29.443Z,9.46
2019-05-14T19:02:57.950Z,9.44
2019-05-14T19:05:29.503Z,9.37
2019-05-14T19:07:59.270Z,9.13
2019-05-14T19:10:28.132Z,8.72
2019-05-14T19:12:58.629Z,8.97
2019-05-14T19:15:26.364Z,8.93
2019-05-14T19:17:58.728Z,8.79
2019-05-14T19:20:28.280Z,8.94
2019-05-14T19:22:56.450Z,8.89
2019-05-14T19:25:24.480Z,8.85
2019-05-14T19:27:52.353Z,8.86
2019-05-14T19:30:20.395Z,8.78
2019-05-14T19:32:48.724Z,8.79
2019-05-14T19:35:18.934Z,8.50
2019-05-14T19:37:48.815Z,8.58
2019-05-14T19:40:19.367Z,8.44
2019-05-14T19:42:48.487Z,8.33
2019-05-14T19:45:18.929Z,8.30
2019-05-14T19:47:49.139Z,8.34
2019-05-14T19:50:18.770Z,8.28
2019-05-14T19:52:48.739Z,8.31
2019-05-14T19:55:18.915Z,8.35
2019-05-14T19:57:49.030Z,8.32
2019-05-14T20:00:22.853Z,8.32
2019-05-14T20:02:51.231Z,8.35
2019-05-14T20:05:19.255Z,8.33
2019-05-14T20:07:49.062Z,8.30
2019-05-14T20:10:17.306Z,8.16
2019-05-14T20:12:45.652Z,8.33
2019-05-14T20:15:14.036Z,8.33
2019-05-14T20:17:41.920Z,8.36
2019-05-14T20:20:10.131Z,8.22
2019-05-14T20:22:39.239Z,8.10
2019-05-14T20:25:07.854Z,8.27
2019-05-14T20:27:36.024Z,8.27
2019-05-14T20:30:05.094Z,8.29
2019-05-14T20:32:33.321Z,8.25
2019-05-14T20:35:01.893Z,8.14
2019-05-14T20:37:30.093Z,8.22
2019-05-14T20:39:59.087Z,8.26
2019-05-14T20:42:29.021Z,8.13
2019-05-14T20:44:57.173Z,8.08
2019-05-14T20:47:25.096Z,8.11
2019-05-14T20:49:53.102Z,8.21
2019-05-14T20:52:21.045Z,8.15
2019-05-14T20:54:49.894Z,8.07
2019-05-14T20:57:24.440Z,8.08
2019-05-14T20:59:48.325Z,8.03
2019-05-14T21:02:18.590Z,8.02
2019-05-14T21:04:53.514Z,8.21
2019-05-14T21:07:16.239Z,8.18
2019-05-14T21:09:48.990Z,8.30
2019-05-14T21:12:18.758Z,8.18
2019-05-14T21:14:49.171Z,8.31
2019-05-14T21:17:16.290Z,8.32
2019-05-14T21:19:44.332Z,8.45
2019-05-14T21:22:13.289Z,8.23
2019-05-14T21:24:41.238Z,8.24
2019-05-14T21:27:09.482Z,8.25
2019-05-14T21:29:38.212Z,8.25
2019-05-14T21:32:08.226Z,8.38
2019-05-14T21:34:38.282Z,8.31
2019-05-14T21:37:08.838Z,8.38
2019-05-14T21:39:38.240Z,8.17
2019-05-14T21:42:07.736Z,8.15
2019-05-14T21:44:39.186Z,8.18
2019-05-14T21:47:08.320Z,8.22
2019-05-14T21:49:38.804Z,8.47
2019-05-14T21:52:08.888Z,8.47
2019-05-14T21:54:39.266Z,8.42
2019-05-14T21:57:08.553Z,8.33
2019-05-14T21:59:38.875Z,8.31
2019-05-14T22:02:07.344Z,8.19
2019-05-14T22:04:35.592Z,8.21
2019-05-14T22:07:03.626Z,8.24
2019-05-14T22:09:32.122Z,8.10
2019-05-14T22:12:00.571Z,8.12
2019-05-14T22:14:28.611Z,8.23
2019-05-14T22:16:58.431Z,8.25
2019-05-14T22:19:28.563Z,8.23
2019-05-14T22:21:58.719Z,8.29
2019-05-14T22:24:28.722Z,8.35
2019-05-14T22:26:58.178Z,8.36
2019-05-14T22:29:28.484Z,8.33
2019-05-14T22:31:58.700Z,8.28
2019-05-14T22:35:33.231Z,8.24
2019-05-14T22:41:50.668Z,8.38
2019-05-14T22:44:18.744Z,8.23
2019-05-14T22:46:48.533Z,8.29
2019-05-14T22:49:19.142Z,8.36
2019-05-14T22:51:49.095Z,8.38
2019-05-14T22:54:17.731Z,8.42
2019-05-14T22:56:48.150Z,8.33
2019-05-14T22:59:20.356Z,8.30
2019-05-14T23:01:48.069Z,8.32
2019-05-14T23:04:18.066Z,8.27
2019-05-14T23:06:46.056Z,8.30
2019-05-14T23:09:16.391Z,8.33
2019-05-14T23:11:44.045Z,8.39
2019-05-14T23:14:13.021Z,8.36
2019-05-14T23:16:41.977Z,8.55
2019-05-14T23:19:10.318Z,8.38
2019-05-14T23:21:39.182Z,8.40
2019-05-14T23:24:09.210Z,8.45
2019-05-14T23:26:37.463Z,8.33
2019-05-14T23:29:05.579Z,8.39
2019-05-14T23:31:33.775Z,8.45
2019-05-14T23:34:01.895Z,8.49
2019-05-14T23:36:29.722Z,8.33
2019-05-14T23:38:59.154Z,8.41
2019-05-14T23:41:28.634Z,8.56
2019-05-14T23:43:56.663Z,8.43
2019-05-14T23:46:24.577Z,8.16
2019-05-14T23:48:52.490Z,8.43
2019-05-14T23:51:20.494Z,8.42
2019-05-14T23:53:48.497Z,8.57
2019-05-14T23:56:19.125Z,8.60
2019-05-14T23:58:54.924Z,8.60
